• Join FlightAware (Why Join?)
  • Login
  • US Flag 
09:24AM EST


 

Airport Tracker/Info


-or-


 

Live Flight TrackerFlight Track Log ✈ KAP927 ✈ 03-Jul-2013 ✈ KOGS - KALB

Flight Track Log - Related Links

Times and Time Zones

All times are in EDT time to prevent confusion due to time zone crossing. See the KAP927 flight status page for this flight to view local times or setup timezone preferences in your user account.

Time Position Orientation Groundspeed Altitude Reporting Facility
EDT Latitude Longitude Course Direction KTS MPH feet Rate Location/Type
07:16AM 44.6563 -75.4426 148° Southeast  Level Estimated
07:20AM 44.5914 -75.3494 148° Southeast 156 180 3,200  Level Boston Center
07:21AM 44.5608 -75.3158 142° Southeast 145 167 3,700 540 Climbing Boston Center
07:22AM 44.5303 -75.2911 150° Southeast 140 161 4,300 600 Climbing Boston Center
07:23AM 44.4975 -75.2633 149° Southeast 140 161 4,900 540 Climbing Boston Center
07:24AM 44.4672 -75.2328 144° Southeast 140 161 5,400 540 Climbing Boston Center
07:25AM 44.4367 -75.2022 144° Southeast 140 161 6,000 540 Climbing Boston Center
07:26AM 44.4017 -75.1775 153° Southeast 140 161 6,500 420 Climbing Boston Center
07:27AM 44.3669 -75.1497 150° Southeast 140 161 6,900 240 Climbing Boston Center
07:28AM 44.3303 -75.1189 149° Southeast 145 167 7,000  Climbing Boston Center
07:29AM 44.2872 -75.0881 153° Southeast 158 182 7,000  Level Boston Center
07:30AM 44.2483 -75.0514 146° Southeast 164 189 7,000  Level Boston Center
07:31AM 44.2094 -75.0150 146° Southeast 171 197 7,000  Level Boston Center
07:33AM 44.1708 -74.9786 146° Southeast 171 197 7,000  Level Boston Center
07:34AM 44.1258 -74.9392 148° Southeast 165 190 7,000  Level Boston Center
07:35AM 44.0889 -74.9058 147° Southeast 165 190 7,000  Level Boston Center
07:36AM 44.0500 -74.8753 151° Southeast 165 190 7,000 -60 Level Boston Center
07:37AM 44.0111 -74.8447 151° Southeast 165 190 6,900  Descending Boston Center
07:38AM 43.9722 -74.8172 153° Southeast 165 190 7,000  Climbing Boston Center
07:39AM 43.9311 -74.7839 150° Southeast 160 184 7,000 -60 Level Boston Center
07:40AM 43.8942 -74.7536 149° Southeast 160 184 6,900  Descending Boston Center
07:41AM 43.8553 -74.7233 151° Southeast 160 184 7,000  Climbing Boston Center
07:42AM 43.8183 -74.6903 147° Southeast 160 184 7,000 -60 Level Boston Center
07:43AM 43.7814 -74.6572 147° Southeast 160 184 6,900 -60 Descending Boston Center
07:44AM 43.7425 -74.6214 146° Southeast 160 184 6,900  Level Boston Center
07:45AM 43.7056 -74.5883 147° Southeast 165 190 6,900  Level Boston Center
07:46AM 43.6689 -74.5528 145° Southeast 165 190 6,900  Level Boston Center
07:47AM 43.6381 -74.5286 150° Southeast 165 190 6,900  Level Boston Center
07:48AM 43.5886 -74.4953 154° Southeast 160 184 6,900  Level Boston Center
07:49AM 43.5494 -74.4683 153° Southeast 155 178 6,900  Level Boston Center
07:50AM 43.5125 -74.4328 145° Southeast 155 178 6,900  Level Boston Center
07:51AM 43.4694 -74.3969 149° Southeast 155 178 6,900  Level Boston Center
07:52AM 43.4325 -74.3642 147° Southeast 160 184 6,900  Level Boston Center
07:53AM 43.3933 -74.3317 149° Southeast 160 184 6,900  Level Boston Center
07:54AM 43.3586 -74.2992 146° Southeast 167 192 6,900  Level Boston Center
07:55AM 43.3153 -74.2636 149° Southeast 167 192 6,900  Level Boston Center
07:56AM 43.2825 -74.2342 147° Southeast 162 186 6,900 -300 Level Boston Center
07:57AM 43.2394 -74.1928 145° Southeast 169 194 6,400 -480 Descending Boston Center
07:58AM 43.2044 -74.1492 138° Southeast 175 201 6,000 -480 Descending Boston Center
07:59AM 43.1636 -74.0994 138° Southeast 181 208 5,500 -480 Descending Boston Center
08:00AM 43.1350 -74.0589 134° Southeast 181 208 5,100 -540 Descending Boston Center
08:01AM 43.0858 -74.0064 142° Southeast 187 215 4,500 -540 Descending Boston Center
08:02AM 43.0489 -73.9544 134° Southeast 187 215 4,000 -360 Descending Boston Center
08:03AM 43.0119 -73.9167 143° Southeast 185 213 3,800 -420 Descending Boston Center
08:04AM 42.9769 -73.8733 138° Southeast 185 213 3,300 -420 Descending Boston Center
08:05AM 42.9381 -73.8242 137° Southeast 185 213 3,000 -480 Descending Boston Center
08:06AM 42.8922 -73.8117 169° South 166 191 2,400 -480 Descending Boston Center
08:07AM 42.8467 -73.7967 166° South 166 191 2,100 -720 Descending Boston Center
08:08AM 42.7881 -73.8094 189° South 155 178 900 -960 Descending Boston Center
08:10AM 42.7491 -73.8020 160° South  Level Estimated
08:17AM 42.7491 -73.8020 160° South  Level Estimated
08:18AM 42.7491 -73.8020 160° South  Level Estimated
08:19AM 42.7491 -73.8020 160° South  Level Estimated